createdAt,value
2018-12-03T00:00:54.633Z,21.03
2018-12-03T00:01:54.621Z,20.96
2018-12-03T00:02:54.611Z,20.92
2018-12-03T00:03:54.600Z,20.95
2018-12-03T00:04:54.587Z,21.07
2018-12-03T00:05:54.682Z,20.88
2018-12-03T00:06:54.564Z,20.98
2018-12-03T00:07:54.567Z,21.04
2018-12-03T00:08:54.546Z,21.03
2018-12-03T00:09:54.533Z,21.01
2018-12-03T00:10:54.523Z,20.96
2018-12-03T00:11:54.613Z,20.90
2018-12-03T00:12:54.501Z,21.03
2018-12-03T00:13:54.490Z,21.03
2018-12-03T00:14:54.480Z,21.01
2018-12-03T00:15:54.467Z,21.05
2018-12-03T00:16:54.459Z,21.00
2018-12-03T00:17:55.753Z,20.95
2018-12-03T00:18:54.442Z,20.89
2018-12-03T00:19:54.430Z,20.93
2018-12-03T00:20:54.413Z,20.92
2018-12-03T00:21:54.407Z,20.92
2018-12-03T00:22:54.392Z,21.03
2018-12-03T00:23:54.485Z,21.00
2018-12-03T00:24:54.371Z,20.93
2018-12-03T00:25:54.360Z,20.92
2018-12-03T00:26:54.349Z,20.95
2018-12-03T00:27:54.344Z,20.92
2018-12-03T00:28:54.328Z,20.93
2018-12-03T00:29:54.444Z,20.90
2018-12-03T00:30:54.310Z,20.98
2018-12-03T00:31:54.295Z,20.90
2018-12-03T00:32:54.294Z,20.90
2018-12-03T00:33:54.273Z,20.92
2018-12-03T00:34:54.262Z,20.88
2018-12-03T00:35:54.436Z,20.89
2018-12-03T00:36:54.241Z,20.93
2018-12-03T00:37:54.246Z,20.95
2018-12-03T00:38:54.224Z,20.88
2018-12-03T00:39:54.218Z,20.86
2018-12-03T00:40:54.202Z,20.83
2018-12-03T00:41:54.302Z,20.85
2018-12-03T00:42:54.218Z,20.89
2018-12-03T00:43:54.169Z,20.88
2018-12-03T00:44:54.955Z,20.80
2018-12-03T00:45:54.176Z,20.82
2018-12-03T00:46:54.160Z,20.90
2018-12-03T00:47:54.241Z,20.89
2018-12-03T00:48:54.115Z,20.82
2018-12-03T00:49:54.813Z,20.88
2018-12-03T00:50:54.099Z,20.85
2018-12-03T00:51:54.084Z,20.77
2018-12-03T00:52:54.114Z,20.89
2018-12-03T00:53:54.375Z,20.85
2018-12-03T00:54:54.051Z,20.86
2018-12-03T00:55:54.045Z,20.83
2018-12-03T00:56:54.815Z,20.82
2018-12-03T00:57:54.019Z,20.78
2018-12-03T00:58:54.016Z,20.74
2018-12-03T00:59:54.181Z,20.80
2018-12-03T01:00:54.004Z,20.83
2018-12-03T01:01:54.815Z,20.80
2018-12-03T01:02:53.978Z,20.78
2018-12-03T01:03:53.962Z,20.80
2018-12-03T01:04:53.945Z,20.82
2018-12-03T01:05:54.815Z,20.78
2018-12-03T01:06:53.944Z,20.83
2018-12-03T01:07:53.912Z,20.83
2018-12-03T01:08:53.908Z,20.78
2018-12-03T01:09:53.915Z,20.83
2018-12-03T01:10:53.892Z,20.80
2018-12-03T01:11:54.008Z,20.77
2018-12-03T01:12:53.869Z,20.80
2018-12-03T01:13:53.859Z,20.78
2018-12-03T01:14:53.849Z,20.67
2018-12-03T01:15:53.834Z,20.64
2018-12-03T01:16:53.829Z,20.70
2018-12-03T01:17:55.819Z,20.70
2018-12-03T01:18:53.801Z,20.67
2018-12-03T01:19:53.788Z,20.63
2018-12-03T01:20:53.784Z,20.63
2018-12-03T01:21:53.762Z,20.66
2018-12-03T01:22:53.750Z,20.71
2018-12-03T01:23:53.843Z,20.66
2018-12-03T01:24:53.728Z,20.67
2018-12-03T01:25:53.717Z,20.64
2018-12-03T01:26:53.709Z,20.66
2018-12-03T01:27:53.698Z,20.66
2018-12-03T01:28:53.686Z,20.71
2018-12-03T01:29:54.101Z,20.68
2018-12-03T01:30:53.662Z,20.66
2018-12-03T01:31:53.651Z,20.73
2018-12-03T01:32:53.639Z,20.74
2018-12-03T01:33:53.628Z,20.73
2018-12-03T01:34:53.617Z,20.60
2018-12-03T01:35:53.778Z,20.75
2018-12-03T01:36:53.596Z,20.60
2018-12-03T01:37:53.588Z,20.66
2018-12-03T01:38:53.574Z,20.70
2018-12-03T01:39:53.561Z,20.73
2018-12-03T01:40:53.552Z,20.73
2018-12-03T01:41:53.658Z,20.74
2018-12-03T01:42:53.533Z,20.67
2018-12-03T01:43:53.520Z,20.70
2018-12-03T01:44:53.511Z,20.63
2018-12-03T01:45:53.499Z,20.66
2018-12-03T01:46:53.487Z,20.71
2018-12-03T01:47:53.587Z,20.64
2018-12-03T01:48:53.465Z,20.68
2018-12-03T01:49:53.466Z,20.67
2018-12-03T01:50:53.444Z,20.66
2018-12-03T01:51:53.433Z,20.66
2018-12-03T01:52:53.422Z,20.66
2018-12-03T01:53:53.576Z,20.67
2018-12-03T01:54:53.400Z,20.64
2018-12-03T01:55:53.395Z,20.64
2018-12-03T01:56:53.379Z,20.60
2018-12-03T01:57:53.369Z,20.66
2018-12-03T01:58:53.366Z,20.60
2018-12-03T01:59:53.455Z,20.58
2018-12-03T02:00:53.347Z,20.63
2018-12-03T02:01:53.338Z,20.70
2018-12-03T02:02:53.321Z,20.63
2018-12-03T02:03:53.309Z,20.64
2018-12-03T02:04:53.299Z,20.71
2018-12-03T02:05:53.415Z,20.60
2018-12-03T02:06:53.285Z,20.63
2018-12-03T02:07:53.263Z,20.56
2018-12-03T02:08:53.253Z,20.59
2018-12-03T02:09:53.244Z,20.56
2018-12-03T02:10:53.228Z,20.59
2018-12-03T02:11:53.404Z,20.63
2018-12-03T02:12:53.208Z,20.66
2018-12-03T02:13:53.200Z,20.66
2018-12-03T02:14:53.199Z,20.64
2018-12-03T02:15:53.179Z,20.66
2018-12-03T02:16:53.168Z,20.63
2018-12-03T02:17:53.428Z,20.59
2018-12-03T02:18:53.146Z,20.64
2018-12-03T02:19:53.133Z,20.66
2018-12-03T02:20:53.122Z,20.64
2018-12-03T02:21:53.114Z,20.64
2018-12-03T02:22:53.106Z,20.60
2018-12-03T02:23:53.189Z,20.71
2018-12-03T02:24:53.080Z,20.63
2018-12-03T02:25:53.920Z,20.64
2018-12-03T02:26:53.060Z,20.67
2018-12-03T02:27:53.048Z,20.66
2018-12-03T02:28:53.038Z,20.73
2018-12-03T02:29:53.123Z,20.70
2018-12-03T02:30:53.016Z,20.66
2018-12-03T02:31:53.001Z,20.66
2018-12-03T02:32:52.989Z,20.70
2018-12-03T02:33:52.984Z,20.73
2018-12-03T02:34:52.969Z,20.64
2018-12-03T02:35:53.174Z,20.68
2018-12-03T02:36:52.956Z,20.66
2018-12-03T02:37:52.943Z,20.67
2018-12-03T02:38:52.934Z,20.58
2018-12-03T02:39:52.925Z,20.75
2018-12-03T02:40:52.906Z,20.66
2018-12-03T02:41:53.024Z,20.64
2018-12-03T02:42:52.886Z,20.63
2018-12-03T02:43:52.876Z,20.70
2018-12-03T02:44:52.865Z,20.64
2018-12-03T02:45:52.884Z,20.66
2018-12-03T02:46:52.844Z,20.66
2018-12-03T02:47:52.957Z,20.60
2018-12-03T02:48:52.822Z,20.66
2018-12-03T02:49:52.817Z,20.63
2018-12-03T02:50:52.805Z,20.56
2018-12-03T02:51:52.797Z,20.55
2018-12-03T02:52:52.783Z,20.63
2018-12-03T02:53:52.941Z,20.53
2018-12-03T02:54:52.756Z,20.58
2018-12-03T02:55:52.749Z,20.66
2018-12-03T02:56:52.735Z,20.66
2018-12-03T02:57:52.728Z,20.66
2018-12-03T02:58:52.716Z,20.59
2018-12-03T02:59:52.872Z,20.68
2018-12-03T03:00:52.697Z,20.60
2018-12-03T03:01:52.682Z,20.64
2018-12-03T03:02:52.670Z,20.71
2018-12-03T03:03:52.661Z,20.66
2018-12-03T03:04:52.645Z,20.70
2018-12-03T03:05:52.746Z,20.68
2018-12-03T03:06:52.628Z,20.67
2018-12-03T03:07:52.617Z,20.67
2018-12-03T03:08:52.607Z,20.70
2018-12-03T03:09:52.596Z,20.71
2018-12-03T03:10:52.584Z,20.71
2018-12-03T03:11:52.711Z,20.71
2018-12-03T03:12:52.570Z,20.64
2018-12-03T03:13:52.552Z,20.66
2018-12-03T03:14:52.542Z,20.64
2018-12-03T03:15:52.535Z,20.71
2018-12-03T03:16:52.521Z,20.74
2018-12-03T03:17:52.799Z,20.68
2018-12-03T03:18:52.498Z,20.74
2018-12-03T03:19:52.487Z,20.70
2018-12-03T03:20:52.475Z,20.68
2018-12-03T03:21:52.469Z,20.68
2018-12-03T03:22:52.460Z,20.73
2018-12-03T03:23:52.546Z,20.70
2018-12-03T03:24:52.434Z,20.70
2018-12-03T03:25:52.422Z,20.73
2018-12-03T03:26:52.404Z,20.70
2018-12-03T03:27:52.403Z,20.68
2018-12-03T03:28:52.388Z,20.70
2018-12-03T03:29:52.487Z,20.63
2018-12-03T03:30:52.385Z,20.73
2018-12-03T03:31:52.374Z,20.78
2018-12-03T03:32:52.371Z,20.75
2018-12-03T03:33:52.337Z,20.68
2018-12-03T03:34:52.324Z,20.78
2018-12-03T03:35:52.617Z,20.75
2018-12-03T03:36:52.303Z,20.77
2018-12-03T03:37:52.290Z,20.75
2018-12-03T03:38:52.281Z,20.71
2018-12-03T03:39:52.272Z,20.64
2018-12-03T03:40:52.257Z,20.68
2018-12-03T03:41:52.383Z,20.63
2018-12-03T03:42:52.235Z,20.66
2018-12-03T03:43:52.227Z,20.63
2018-12-03T03:44:52.214Z,20.67
2018-12-03T03:45:52.202Z,20.74
2018-12-03T03:46:52.196Z,20.73
2018-12-03T03:47:52.279Z,20.64
2018-12-03T03:48:52.170Z,20.66
2018-12-03T03:49:52.164Z,20.77
2018-12-03T03:50:52.160Z,20.71
2018-12-03T03:51:52.145Z,20.78
2018-12-03T03:52:52.125Z,20.75
2018-12-03T03:53:52.398Z,20.75
2018-12-03T03:54:52.104Z,20.75
2018-12-03T03:55:52.113Z,20.75
2018-12-03T03:56:52.083Z,20.68
2018-12-03T03:57:52.073Z,20.73
2018-12-03T03:58:52.066Z,20.75
2018-12-03T03:59:52.162Z,20.77
2018-12-03T04:00:52.048Z,20.77
2018-12-03T04:01:52.031Z,20.78
2018-12-03T04:02:52.075Z,20.80
2018-12-03T04:03:52.015Z,20.78
2018-12-03T04:04:52.925Z,20.80
2018-12-03T04:05:52.191Z,20.82
2018-12-03T04:06:51.985Z,20.75
2018-12-03T04:07:51.969Z,20.78
2018-12-03T04:08:51.960Z,20.82
2018-12-03T04:09:51.947Z,20.78
2018-12-03T04:10:51.938Z,20.82
2018-12-03T04:11:52.102Z,20.77
2018-12-03T04:12:51.922Z,20.82
2018-12-03T04:13:51.907Z,20.80
2018-12-03T04:14:51.895Z,20.71
2018-12-03T04:15:51.883Z,20.73
2018-12-03T04:16:51.871Z,20.66
2018-12-03T04:17:51.953Z,20.71
2018-12-03T04:18:51.845Z,20.75
2018-12-03T04:19:51.839Z,20.75
2018-12-03T04:20:51.828Z,20.82
2018-12-03T04:21:51.815Z,20.78
2018-12-03T04:22:51.804Z,20.78
2018-12-03T04:23:51.891Z,20.82
2018-12-03T04:24:51.783Z,20.78
2018-12-03T04:25:51.775Z,20.89
2018-12-03T04:26:51.764Z,20.90
2018-12-03T04:27:51.748Z,20.89
2018-12-03T04:28:51.747Z,20.90
2018-12-03T04:29:52.013Z,20.93
2018-12-03T04:30:51.723Z,20.86
2018-12-03T04:31:51.709Z,21.00
2018-12-03T04:32:51.695Z,20.96
2018-12-03T04:33:51.684Z,20.96
2018-12-03T04:34:51.675Z,20.86
2018-12-03T04:35:51.790Z,20.98
2018-12-03T04:36:51.657Z,20.92
2018-12-03T04:37:51.643Z,20.92
2018-12-03T04:38:51.639Z,20.98
2018-12-03T04:39:51.622Z,21.08
2018-12-03T04:40:51.621Z,20.92
2018-12-03T04:41:51.721Z,20.88
2018-12-03T04:42:51.589Z,21.08
2018-12-03T04:43:51.577Z,20.93
2018-12-03T04:44:51.566Z,20.98
2018-12-03T04:45:51.557Z,20.93
2018-12-03T04:46:51.549Z,20.88
2018-12-03T04:47:51.816Z,21.05
2018-12-03T04:48:51.589Z,21.00
2018-12-03T04:49:51.514Z,20.90
2018-12-03T04:50:51.506Z,20.90
2018-12-03T04:51:51.495Z,20.93
2018-12-03T04:52:51.506Z,20.92
2018-12-03T04:53:51.572Z,20.90
2018-12-03T04:54:51.461Z,21.04
2018-12-03T04:55:51.449Z,20.98
2018-12-03T04:56:51.437Z,20.95
2018-12-03T04:57:51.431Z,21.04
2018-12-03T04:58:51.415Z,20.95
2018-12-03T04:59:51.511Z,21.10
2018-12-03T05:00:51.394Z,21.05
2018-12-03T05:01:51.385Z,21.11
2018-12-03T05:02:51.373Z,21.05
2018-12-03T05:03:51.362Z,21.10
2018-12-03T05:04:51.351Z,21.05
2018-12-03T05:05:51.606Z,21.14
2018-12-03T05:06:51.700Z,21.14
2018-12-03T05:07:51.321Z,21.17
2018-12-03T05:08:51.311Z,21.08
2018-12-03T05:09:51.301Z,21.13
2018-12-03T05:10:51.290Z,21.13
2018-12-03T05:11:51.379Z,21.10
2018-12-03T05:12:51.274Z,21.10
2018-12-03T05:13:51.258Z,21.08
2018-12-03T05:14:51.244Z,21.10
2018-12-03T05:15:51.233Z,21.05
2018-12-03T05:16:51.228Z,21.07
2018-12-03T05:17:51.435Z,21.10
2018-12-03T05:18:51.207Z,21.08
2018-12-03T05:19:51.191Z,21.10
2018-12-03T05:20:51.181Z,21.11
2018-12-03T05:21:51.168Z,20.98
2018-12-03T05:22:51.159Z,21.00
2018-12-03T05:23:51.245Z,20.90
2018-12-03T05:24:51.138Z,20.92
2018-12-03T05:25:51.129Z,21.03
2018-12-03T05:26:51.127Z,21.04
2018-12-03T05:27:51.106Z,21.07
2018-12-03T05:28:51.094Z,20.95
2018-12-03T05:29:51.260Z,20.90
2018-12-03T05:30:51.074Z,20.98
2018-12-03T05:31:51.070Z,20.98
2018-12-03T05:32:51.060Z,20.98
2018-12-03T05:33:51.049Z,20.96
2018-12-03T05:34:51.035Z,20.98
2018-12-03T05:35:51.197Z,20.98
2018-12-03T05:36:51.037Z,21.03
2018-12-03T05:37:51.006Z,20.95
2018-12-03T05:38:51.003Z,20.85
2018-12-03T05:39:50.993Z,21.03
2018-12-03T05:40:50.970Z,20.95
2018-12-03T05:41:51.070Z,21.05
2018-12-03T05:42:50.949Z,21.22
2018-12-03T05:43:50.940Z,21.08
2018-12-03T05:44:50.964Z,21.14
2018-12-03T05:45:50.916Z,21.14
2018-12-03T05:46:50.912Z,21.15
2018-12-03T05:47:51.044Z,21.22
2018-12-03T05:48:50.889Z,21.22
2018-12-03T05:49:50.873Z,21.19
2018-12-03T05:50:50.870Z,21.20
2018-12-03T05:51:50.850Z,21.30
2018-12-03T05:52:50.844Z,21.30
2018-12-03T05:53:50.947Z,21.30
2018-12-03T05:54:50.821Z,21.25
2018-12-03T05:55:50.820Z,21.30
2018-12-03T05:56:50.796Z,21.45
2018-12-03T05:57:50.789Z,21.38
2018-12-03T05:58:50.773Z,21.54
2018-12-03T05:59:50.888Z,21.41
2018-12-03T06:00:50.754Z,21.56
2018-12-03T06:01:50.743Z,21.54
2018-12-03T06:02:50.743Z,21.65
2018-12-03T06:03:50.723Z,21.60
2018-12-03T06:04:50.715Z,21.62
2018-12-03T06:05:50.821Z,21.63
2018-12-03T06:06:50.694Z,21.59
2018-12-03T06:07:50.677Z,21.74
2018-12-03T06:08:50.667Z,21.66
2018-12-03T06:09:50.662Z,21.69
2018-12-03T06:10:50.646Z,21.70
2018-12-03T06:11:50.792Z,21.72
2018-12-03T06:12:50.630Z,21.78
2018-12-03T06:13:50.627Z,21.72
2018-12-03T06:14:50.611Z,21.77
2018-12-03T06:15:50.613Z,21.68
2018-12-03T06:16:50.587Z,21.74
2018-12-03T06:17:50.882Z,21.80
2018-12-03T06:18:50.588Z,21.78
2018-12-03T06:19:50.556Z,21.81
2018-12-03T06:20:50.555Z,21.81
2018-12-03T06:21:50.539Z,21.84
2018-12-03T06:22:50.529Z,21.91
2018-12-03T06:23:50.623Z,21.88
2018-12-03T06:24:50.514Z,21.92
2018-12-03T06:25:50.487Z,21.94
2018-12-03T06:26:50.481Z,21.85
2018-12-03T06:27:50.472Z,21.83
2018-12-03T06:28:50.463Z,21.94
2018-12-03T06:29:50.619Z,21.89
2018-12-03T06:30:50.437Z,21.94
2018-12-03T06:31:50.440Z,21.78
2018-12-03T06:32:50.414Z,21.91
2018-12-03T06:33:50.412Z,21.91
2018-12-03T06:34:50.412Z,21.89
2018-12-03T06:35:50.712Z,22.06
2018-12-03T06:36:50.391Z,21.99
2018-12-03T06:37:50.390Z,22.03
2018-12-03T06:38:50.369Z,22.10
2018-12-03T06:39:50.925Z,22.04
2018-12-03T06:40:50.337Z,22.22
2018-12-03T06:41:50.436Z,22.26
2018-12-03T06:42:50.316Z,22.25
2018-12-03T06:43:50.296Z,22.28
2018-12-03T06:44:50.296Z,22.31
2018-12-03T06:45:50.340Z,22.33
2018-12-03T06:46:50.268Z,22.37
2018-12-03T06:47:50.483Z,22.41
2018-12-03T06:48:51.262Z,22.44
2018-12-03T06:49:50.274Z,22.51
2018-12-03T06:50:50.238Z,22.53
2018-12-03T06:51:51.219Z,22.49
2018-12-03T06:52:50.281Z,22.58
2018-12-03T06:53:50.978Z,22.55
2018-12-03T06:54:50.203Z,22.55
2018-12-03T06:55:50.192Z,22.61
2018-12-03T06:56:50.946Z,22.56
2018-12-03T06:57:50.171Z,22.63
2018-12-03T06:58:50.160Z,22.70
2018-12-03T06:59:50.243Z,22.73
2018-12-03T07:00:50.161Z,22.74
2018-12-03T07:01:50.111Z,22.81
2018-12-03T07:02:50.098Z,22.78
2018-12-03T07:03:50.080Z,22.84
2018-12-03T07:04:50.158Z,22.71
2018-12-03T07:05:50.360Z,22.77
2018-12-03T07:06:50.931Z,22.77
2018-12-03T07:07:50.064Z,22.81
2018-12-03T07:08:50.036Z,22.77
2018-12-03T07:09:50.023Z,22.88
2018-12-03T07:10:50.018Z,22.81
2018-12-03T07:11:50.315Z,22.83
2018-12-03T07:12:49.997Z,22.84
2018-12-03T07:13:49.988Z,22.95
2018-12-03T07:14:49.962Z,22.93
2018-12-03T07:15:49.963Z,23.06
2018-12-03T07:16:49.982Z,23.02
2018-12-03T07:17:50.044Z,23.17
2018-12-03T07:18:49.936Z,23.23
2018-12-03T07:19:49.932Z,23.21
2018-12-03T07:20:49.915Z,23.25
2018-12-03T07:21:49.925Z,23.21
2018-12-03T07:22:49.899Z,23.26
2018-12-03T07:23:50.149Z,23.16
2018-12-03T07:24:49.869Z,23.26
2018-12-03T07:25:49.873Z,23.20
2018-12-03T07:26:49.846Z,23.29
2018-12-03T07:27:50.454Z,23.33
2018-12-03T07:28:49.940Z,23.40
2018-12-03T07:29:52.842Z,23.39
2018-12-03T07:30:49.830Z,23.48
2018-12-03T07:31:49.823Z,23.51
2018-12-03T07:32:49.799Z,23.62
2018-12-03T07:33:49.780Z,23.76
2018-12-03T07:34:49.758Z,23.79
2018-12-03T07:35:49.843Z,23.88
2018-12-03T07:36:49.738Z,23.86
2018-12-03T07:37:49.719Z,24.00
2018-12-03T07:38:49.709Z,23.99
2018-12-03T07:39:50.490Z,24.10
2018-12-03T07:40:49.723Z,24.22
2018-12-03T07:41:49.939Z,24.28
2018-12-03T07:42:49.665Z,24.40
2018-12-03T07:43:49.655Z,24.38
2018-12-03T07:44:49.643Z,24.46
2018-12-03T07:45:49.633Z,24.56
2018-12-03T07:46:49.626Z,24.53
2018-12-03T07:47:49.901Z,24.51
2018-12-03T07:48:49.601Z,24.55
2018-12-03T07:49:49.594Z,24.50
2018-12-03T07:50:49.577Z,24.56
2018-12-03T07:51:49.566Z,24.65
2018-12-03T07:52:49.557Z,24.69
2018-12-03T07:53:49.636Z,24.68
2018-12-03T07:54:49.535Z,24.74
2018-12-03T07:55:49.521Z,24.77
2018-12-03T07:56:49.508Z,24.78
2018-12-03T07:57:49.499Z,24.82
2018-12-03T07:58:49.487Z,24.85
2018-12-03T07:59:49.589Z,24.81
2018-12-03T08:00:49.469Z,24.78
2018-12-03T08:01:49.458Z,24.69
2018-12-03T08:02:49.447Z,24.65
2018-12-03T08:03:49.437Z,24.65
2018-12-03T08:04:49.430Z,24.62
2018-12-03T08:05:49.579Z,24.69
2018-12-03T08:06:49.410Z,24.68
2018-12-03T08:07:49.392Z,24.77
2018-12-03T08:08:49.383Z,24.68
2018-12-03T08:09:49.371Z,24.66
2018-12-03T08:10:49.371Z,24.58
2018-12-03T08:11:49.444Z,24.63
2018-12-03T08:12:49.338Z,24.48
2018-12-03T08:13:49.332Z,24.62
2018-12-03T08:14:49.317Z,24.62
2018-12-03T08:15:49.306Z,24.62
2018-12-03T08:16:49.295Z,24.62
2018-12-03T08:17:49.380Z,24.56
2018-12-03T08:18:49.273Z,24.50
2018-12-03T08:19:49.264Z,24.56
2018-12-03T08:20:49.253Z,24.69
2018-12-03T08:21:49.243Z,24.89
2018-12-03T08:22:49.230Z,25.04
2018-12-03T08:23:49.599Z,25.19
2018-12-03T08:24:49.208Z,25.40
2018-12-03T08:25:49.199Z,25.55
2018-12-03T08:26:49.191Z,25.63
2018-12-03T08:27:49.173Z,25.68
2018-12-03T08:28:49.174Z,25.81
2018-12-03T08:29:49.247Z,25.91
2018-12-03T08:30:49.146Z,25.91
2018-12-03T08:31:49.134Z,26.01
2018-12-03T08:32:49.122Z,26.03
2018-12-03T08:33:49.141Z,25.93
2018-12-03T08:34:49.107Z,25.93
2018-12-03T08:35:49.202Z,25.89
2018-12-03T08:36:49.076Z,26.08
2018-12-03T08:37:49.071Z,26.11
2018-12-03T08:38:49.056Z,26.13
2018-12-03T08:39:49.818Z,26.26
2018-12-03T08:40:49.040Z,26.34
2018-12-03T08:41:49.196Z,26.45
2018-12-03T08:42:49.028Z,26.44
2018-12-03T08:43:49.004Z,26.55
2018-12-03T08:44:48.989Z,26.61
2018-12-03T08:45:48.981Z,26.55
2018-12-03T08:46:49.007Z,26.53
2018-12-03T08:47:49.090Z,26.63
2018-12-03T08:48:48.945Z,26.60
2018-12-03T08:49:48.936Z,26.63
2018-12-03T08:50:48.930Z,26.63
2018-12-03T08:51:48.920Z,26.61
2018-12-03T08:52:48.907Z,26.67
2018-12-03T08:53:49.022Z,26.71
2018-12-03T08:54:48.887Z,26.76
2018-12-03T08:55:48.879Z,26.76
2018-12-03T08:56:48.863Z,26.79
2018-12-03T08:57:48.853Z,26.86
2018-12-03T08:58:48.842Z,26.92
2018-12-03T08:59:48.927Z,26.97
2018-12-03T09:00:48.824Z,27.01
2018-12-03T09:01:48.812Z,26.91
2018-12-03T09:02:48.798Z,26.74
2018-12-03T09:03:48.790Z,26.55
2018-12-03T09:04:48.777Z,26.44
2018-12-03T09:05:48.923Z,26.27
2018-12-03T09:06:48.758Z,26.23
2018-12-03T09:07:48.745Z,26.10
2018-12-03T09:08:48.735Z,26.22
2018-12-03T09:09:48.725Z,26.27
2018-12-03T09:10:48.715Z,26.41
2018-12-03T09:11:48.810Z,26.53
2018-12-03T09:12:48.690Z,26.63
2018-12-03T09:13:48.679Z,26.64
2018-12-03T09:14:48.671Z,26.78
2018-12-03T09:15:48.660Z,26.74
2018-12-03T09:16:48.648Z,26.74
2018-12-03T09:17:48.794Z,26.76
2018-12-03T09:18:48.636Z,26.81
2018-12-03T09:19:48.614Z,26.92
2018-12-03T09:20:48.605Z,26.89
2018-12-03T09:21:48.597Z,27.01
2018-12-03T09:22:48.634Z,26.92
2018-12-03T09:23:48.686Z,26.85
2018-12-03T09:24:48.561Z,26.76
2018-12-03T09:25:48.550Z,26.64
2018-12-03T09:26:48.540Z,26.66
2018-12-03T09:27:48.580Z,26.53
2018-12-03T09:28:48.520Z,26.55
2018-12-03T09:29:48.665Z,26.51
2018-12-03T09:30:48.496Z,26.53
2018-12-03T09:31:48.485Z,26.33
2018-12-03T09:32:48.475Z,26.24
2018-12-03T09:33:48.466Z,26.22
2018-12-03T09:34:48.454Z,26.19
2018-12-03T09:35:48.571Z,26.26
2018-12-03T09:36:48.432Z,26.06
2018-12-03T09:37:48.421Z,26.11
2018-12-03T09:38:48.411Z,26.04
2018-12-03T09:39:48.400Z,25.93
2018-12-03T09:40:48.388Z,25.95
2018-12-03T09:41:48.598Z,25.99
2018-12-03T09:42:48.367Z,26.01
2018-12-03T09:43:48.357Z,26.04
2018-12-03T09:44:48.345Z,25.98
2018-12-03T09:45:48.335Z,25.99
2018-12-03T09:46:48.324Z,25.96
2018-12-03T09:47:48.418Z,25.86
2018-12-03T09:48:48.304Z,25.99
2018-12-03T09:49:48.299Z,25.98
2018-12-03T09:50:48.281Z,25.91
2018-12-03T09:51:48.272Z,26.10
2018-12-03T09:52:48.259Z,26.41
2018-12-03T09:53:48.358Z,26.73
2018-12-03T09:54:48.239Z,26.92
2018-12-03T09:55:48.229Z,27.03
2018-12-03T09:56:48.221Z,27.26
2018-12-03T09:57:48.206Z,27.22
2018-12-03T09:58:48.197Z,27.38
2018-12-03T09:59:48.460Z,27.48
2018-12-03T10:00:48.173Z,27.71
2018-12-03T10:01:48.163Z,28.01
2018-12-03T10:02:48.151Z,28.01
2018-12-03T10:03:48.143Z,28.08
2018-12-03T10:04:48.130Z,27.97
2018-12-03T10:05:48.214Z,27.90
2018-12-03T10:06:48.109Z,27.81
2018-12-03T10:07:48.101Z,27.67
2018-12-03T10:08:48.082Z,27.53
2018-12-03T10:09:48.077Z,27.41
2018-12-03T10:10:48.061Z,27.28
2018-12-03T10:11:48.255Z,27.19
2018-12-03T10:12:48.040Z,27.08
2018-12-03T10:13:48.033Z,27.01
2018-12-03T10:14:48.025Z,26.92
2018-12-03T10:15:48.012Z,26.93
2018-12-03T10:16:47.997Z,26.79
2018-12-03T10:17:48.084Z,26.97
2018-12-03T10:18:47.975Z,27.16
2018-12-03T10:19:47.978Z,27.28
2018-12-03T10:20:47.960Z,27.47
2018-12-03T10:21:47.951Z,27.73
2018-12-03T10:22:47.936Z,28.00
2018-12-03T10:23:48.025Z,27.98
2018-12-03T10:24:47.914Z,27.94
2018-12-03T10:25:47.905Z,27.72
2018-12-03T10:26:47.891Z,27.57
2018-12-03T10:27:47.882Z,27.45
2018-12-03T10:28:47.871Z,27.61
2018-12-03T10:29:48.163Z,27.79
2018-12-03T10:30:47.852Z,28.09
2018-12-03T10:31:47.838Z,28.15
2018-12-03T10:32:47.831Z,28.20
2018-12-03T10:33:47.817Z,28.01
2018-12-03T10:34:47.823Z,27.94
2018-12-03T10:35:48.071Z,28.00
2018-12-03T10:36:47.786Z,28.00
2018-12-03T10:37:47.774Z,27.90
2018-12-03T10:38:47.764Z,27.78
2018-12-03T10:39:47.779Z,27.67
2018-12-03T10:40:47.742Z,27.68
2018-12-03T10:41:48.067Z,27.71
2018-12-03T10:42:47.718Z,27.88
2018-12-03T10:43:47.710Z,28.03
2018-12-03T10:44:47.701Z,28.31
2018-12-03T10:45:47.689Z,28.49
2018-12-03T10:46:47.680Z,28.67
2018-12-03T10:47:47.794Z,28.90
2018-12-03T10:48:47.656Z,29.05
2018-12-03T10:49:47.645Z,29.24
2018-12-03T10:50:47.640Z,29.37
2018-12-03T10:51:47.626Z,29.59
2018-12-03T10:52:47.614Z,29.69
2018-12-03T10:53:47.755Z,29.83
2018-12-03T10:54:47.598Z,29.92
2018-12-03T10:55:47.585Z,30.13
2018-12-03T10:56:47.578Z,30.27
2018-12-03T10:57:47.560Z,30.36
2018-12-03T10:58:47.552Z,30.38
2018-12-03T10:59:47.641Z,30.54
2018-12-03T11:00:47.528Z,30.59
2018-12-03T11:01:47.549Z,30.69
2018-12-03T11:02:47.533Z,30.70
2018-12-03T11:03:47.496Z,30.88
2018-12-03T11:04:47.485Z,30.96
2018-12-03T11:05:47.604Z,31.07
2018-12-03T11:06:47.470Z,31.07
2018-12-03T11:07:47.455Z,31.11
2018-12-03T11:08:47.444Z,31.20
2018-12-03T11:09:47.436Z,31.26
2018-12-03T11:10:47.423Z,31.25
2018-12-03T11:11:47.714Z,31.37
2018-12-03T11:12:47.401Z,31.32
2018-12-03T11:13:47.392Z,31.50
2018-12-03T11:14:47.381Z,31.45
2018-12-03T11:15:47.370Z,31.50
2018-12-03T11:16:47.358Z,31.55
2018-12-03T11:17:47.475Z,31.73
2018-12-03T11:18:47.342Z,31.81
2018-12-03T11:19:47.327Z,31.93
2018-12-03T11:20:47.317Z,31.93
2018-12-03T11:21:47.307Z,31.92
2018-12-03T11:22:47.297Z,31.77
2018-12-03T11:23:47.389Z,32.00
2018-12-03T11:24:47.293Z,31.89
2018-12-03T11:25:47.272Z,31.98
2018-12-03T11:26:47.260Z,31.73
2018-12-03T11:27:47.242Z,31.70
2018-12-03T11:28:47.234Z,31.45
2018-12-03T11:29:47.334Z,31.62
2018-12-03T11:30:47.218Z,31.78
2018-12-03T11:31:47.203Z,31.95
2018-12-03T11:32:47.190Z,32.08
2018-12-03T11:33:47.181Z,32.00
2018-12-03T11:34:47.170Z,31.69
2018-12-03T11:35:47.410Z,31.41
2018-12-03T11:36:47.148Z,31.17
2018-12-03T11:37:47.144Z,31.00
2018-12-03T11:38:47.130Z,30.88
2018-12-03T11:39:47.121Z,30.63
2018-12-03T11:40:47.120Z,30.56
2018-12-03T11:41:47.199Z,30.46
2018-12-03T11:42:47.121Z,30.44
2018-12-03T11:43:47.096Z,30.58
2018-12-03T11:44:47.065Z,30.85
2018-12-03T11:45:47.055Z,31.00
2018-12-03T11:46:47.057Z,31.23
2018-12-03T11:47:47.193Z,31.41
2018-12-03T11:48:47.049Z,31.70
2018-12-03T11:49:47.011Z,31.73
2018-12-03T11:50:47.003Z,31.92
2018-12-03T11:51:46.992Z,32.04
2018-12-03T11:52:46.981Z,32.23
2018-12-03T11:53:47.066Z,32.30
2018-12-03T11:54:46.990Z,32.42
2018-12-03T11:55:46.953Z,32.53
2018-12-03T11:56:46.940Z,32.53
2018-12-03T11:57:46.928Z,32.53
2018-12-03T11:58:46.919Z,32.56
2018-12-03T11:59:47.040Z,32.67
2018-12-03T12:00:46.896Z,32.78
2018-12-03T12:01:46.891Z,32.97
2018-12-03T12:02:46.878Z,33.16
2018-12-03T12:03:46.866Z,33.20
2018-12-03T12:04:46.865Z,33.35
2018-12-03T12:05:47.168Z,33.44
2018-12-03T12:06:46.835Z,33.54
2018-12-03T12:07:46.830Z,33.61
2018-12-03T12:08:46.813Z,33.73
2018-12-03T12:09:46.803Z,33.77
2018-12-03T12:10:46.794Z,33.82
2018-12-03T12:11:46.934Z,33.88
2018-12-03T12:12:46.785Z,33.97
2018-12-03T12:13:46.781Z,34.04
2018-12-03T12:14:46.756Z,34.18
2018-12-03T12:15:46.743Z,34.14
2018-12-03T12:16:46.732Z,34.21
2018-12-03T12:17:46.817Z,34.14
2018-12-03T12:18:46.723Z,34.16
2018-12-03T12:19:46.699Z,34.00
2018-12-03T12:20:46.690Z,33.89
2018-12-03T12:21:46.727Z,33.72
2018-12-03T12:22:46.670Z,33.65
2018-12-03T12:23:47.017Z,33.54
2018-12-03T12:24:46.654Z,33.35
2018-12-03T12:25:46.652Z,33.10
2018-12-03T12:26:46.629Z,33.01
2018-12-03T12:27:46.619Z,32.97
2018-12-03T12:28:46.641Z,32.94
2018-12-03T12:29:46.693Z,32.76
2018-12-03T12:30:46.590Z,32.71
2018-12-03T12:31:46.578Z,32.68
2018-12-03T12:32:46.565Z,32.73
2018-12-03T12:33:46.558Z,32.68
2018-12-03T12:34:46.555Z,32.75
2018-12-03T12:35:46.697Z,32.68
2018-12-03T12:36:46.522Z,32.73
2018-12-03T12:37:46.510Z,32.72
2018-12-03T12:38:46.505Z,32.49
2018-12-03T12:39:46.497Z,32.46
2018-12-03T12:40:46.481Z,32.45
2018-12-03T12:41:46.868Z,32.46
2018-12-03T12:42:46.530Z,32.39
2018-12-03T12:43:46.455Z,32.30
2018-12-03T12:44:46.442Z,32.35
2018-12-03T12:45:46.432Z,32.38
2018-12-03T12:46:46.421Z,32.38
2018-12-03T12:47:46.511Z,32.37
2018-12-03T12:48:46.400Z,32.44
2018-12-03T12:49:46.393Z,32.35
2018-12-03T12:50:46.375Z,32.27
2018-12-03T12:51:51.434Z,32.24
2018-12-03T12:52:47.972Z,32.20